地図

経路データ

SID SEASON NUMBER BASIN SUBBASIN NAME ISO_TIME NATURE LAT LON WMO_WIND WMO_PRES WMO_AGENCY TRACK_TYPE DIST2LAND LANDFALL IFLAG USA_AGENCY USA_ATCF_ID USA_LAT USA_LON USA_RECORD USA_STATUS USA_WIND USA_PRES USA_SSHS USA_R34_NE USA_R34_SE USA_R34_SW USA_R34_NW USA_R50_NE USA_R50_SE USA_R50_SW USA_R50_NW USA_R64_NE USA_R64_SE USA_R64_SW USA_R64_NW USA_POCI USA_ROCI USA_RMW USA_EYE TOKYO_LAT TOKYO_LON TOKYO_GRADE TOKYO_WIND TOKYO_PRES TOKYO_R50_DIR TOKYO_R50_LONG TOKYO_R50_SHORT TOKYO_R30_DIR TOKYO_R30_LONG TOKYO_R30_SHORT TOKYO_LAND CMA_LAT CMA_LON CMA_CAT CMA_WIND CMA_PRES HKO_LAT HKO_LON HKO_CAT HKO_WIND HKO_PRES NEWDELHI_LAT NEWDELHI_LON NEWDELHI_GRADE NEWDELHI_WIND NEWDELHI_PRES NEWDELHI_CI NEWDELHI_DP NEWDELHI_POCI REUNION_LAT REUNION_LON REUNION_TYPE REUNION_WIND REUNION_PRES REUNION_TNUM REUNION_CI REUNION_RMW REUNION_R34_NE REUNION_R34_SE REUNION_R34_SW REUNION_R34_NW REUNION_R50_NE REUNION_R50_SE REUNION_R50_SW REUNION_R50_NW REUNION_R64_NE REUNION_R64_SE REUNION_R64_SW REUNION_R64_NW BOM_LAT BOM_LON BOM_TYPE BOM_WIND BOM_PRES BOM_TNUM BOM_CI BOM_RMW BOM_R34_NE BOM_R34_SE BOM_R34_SW BOM_R34_NW BOM_R50_NE BOM_R50_SE BOM_R50_SW BOM_R50_NW BOM_R64_NE BOM_R64_SE BOM_R64_SW BOM_R64_NW BOM_ROCI BOM_POCI BOM_EYE BOM_POS_METHOD BOM_PRES_METHOD NADI_LAT NADI_LON NADI_CAT NADI_WIND NADI_PRES WELLINGTON_LAT WELLINGTON_LON WELLINGTON_WIND WELLINGTON_PRES DS824_LAT DS824_LON DS824_STAGE DS824_WIND DS824_PRES TD9636_LAT TD9636_LON TD9636_STAGE TD9636_WIND TD9636_PRES TD9635_LAT TD9635_LON TD9635_WIND TD9635_PRES TD9635_ROCI NEUMANN_LAT NEUMANN_LON NEUMANN_CLASS NEUMANN_WIND NEUMANN_PRES MLC_LAT MLC_LON MLC_CLASS MLC_WIND MLC_PRES USA_GUST BOM_GUST BOM_GUST_PER REUNION_GUST REUNION_GUST_PER USA_SEAHGT USA_SEARAD_NE USA_SEARAD_SE USA_SEARAD_SW USA_SEARAD_NW STORM_SPEED STORM_DIR
1868001S17055 1868 1 SI MM NOT_NAMED 1868-01-01 06:00:00 NR -16.9000 54.7000 reunion main 462 451 _____O________ -1 -16.9000 54.7000 99 9.90000 2 153
1868001S17055 1868 1 SI MM NOT_NAMED 1868-01-01 09:00:00 NR -16.9790 54.7300 main 451 439 _____P________ -1 -16.9790 54.7300 99 2 161
1868001S17055 1868 1 SI MM NOT_NAMED 1868-01-01 12:00:00 NR -17.0635 54.7596 main 439 428 _____P________ -1 -17.0635 54.7596 99 2 162
1868001S17055 1868 1 SI MM NOT_NAMED 1868-01-01 15:00:00 NR -17.1592 54.7882 main 428 417 _____P________ -1 -17.1592 54.7882 99 2 164
1868001S17055 1868 1 SI MM NOT_NAMED 1868-01-01 18:00:00 NR -17.2716 54.8154 main 417 406 _____P________ -1 -17.2716 54.8154 99 3 167
1868001S17055 1868 1 SI MM NOT_NAMED 1868-01-01 21:00:00 NR -17.4063 54.8407 main 406 382 _____P________ -1 -17.4063 54.8407 99 3 174
1868001S17055 1868 1 SI MM NOT_NAMED 1868-01-02 00:00:00 NR -17.5689 54.8635 main 382 360 _____P________ -1 -17.5689 54.8635 99 4 174
1868001S17055 1868 1 SI MM NOT_NAMED 1868-01-02 03:00:00 NR -17.7649 54.8835 main 360 338 _____P________ -1 -17.7649 54.8835 99 4 174
1868001S17055 1868 1 SI MM NOT_NAMED 1868-01-02 06:00:00 NR -18.0000 54.9000 reunion main 338 304 _____O________ -1 -18.0000 54.9000 99 9.90000 5 176
1868001S17055 1868 1 SI MM NOT_NAMED 1868-01-02 09:00:00 NR -18.2780 54.9147 main 304 271 _____P________ -1 -18.2780 54.9147 99 6 176
1868001S17055 1868 1 SI MM NOT_NAMED 1868-01-02 12:00:00 NR -18.5961 54.9371 main 271 236 _____P________ -1 -18.5961 54.9371 99 7 176
1868001S17055 1868 1 SI MM NOT_NAMED 1868-01-02 15:00:00 NR -18.9498 54.9790 main 236 192 _____P________ -1 -18.9498 54.9790 99 8 171
1868001S17055 1868 1 SI MM NOT_NAMED 1868-01-02 18:00:00 NR -19.3350 55.0522 main 191 145 _____P________ -1 -19.3350 55.0522 99 8 167
1868001S17055 1868 1 SI MM NOT_NAMED 1868-01-02 21:00:00 NR -19.7470 55.1686 main 145 89 _____P________ -1 -19.7470 55.1686 99 9 162
1868001S17055 1868 1 SI MM NOT_NAMED 1868-01-03 00:00:00 NR -20.1815 55.3404 main 89 44 _____P________ -1 -20.1815 55.3404 99 10 156
1868001S17055 1868 1 SI MM NOT_NAMED 1868-01-03 03:00:00 NR -20.6340 55.5800 main 44 10 _____P________ -1 -20.6340 55.5800 99 11 150
1868001S17055 1868 1 SI MM NOT_NAMED 1868-01-03 06:00:00 NR -21.1000 55.9000 reunion main 10 10 _____O________ -1 -21.1000 55.9000 99 9.90000 12 144
1868001S17055 1868 1 SI MM NOT_NAMED 1868-01-03 09:00:00 NR -21.6090 56.3522 main 70 70 _____P________ -1 -21.6090 56.3522 99 14 138
1868001S17055 1868 1 SI MM NOT_NAMED 1868-01-03 12:00:00 NR -22.1416 56.8923 main 144 144 _____P________ -1 -22.1416 56.8923 99 15 135
1868001S17055 1868 1 SI MM NOT_NAMED 1868-01-03 15:00:00 NR -22.6827 57.5017 main 234 234 _____P________ -1 -22.6827 57.5017 99 16 133
1868001S17055 1868 1 SI MM NOT_NAMED 1868-01-03 18:00:00 NR -23.2173 58.1613 main 306 306 _____P________ -1 -23.2173 58.1613 99 16 130
1868001S17055 1868 1 SI MM NOT_NAMED 1868-01-03 21:00:00 NR -23.7306 58.8516 main 378 378 _____P________ -1 -23.7306 58.8516 99 16 128
1868001S17055 1868 1 SI MM NOT_NAMED 1868-01-04 00:00:00 NR -24.2081 59.5521 main 457 457 _____P________ -1 -24.2081 59.5521 99 16 126
1868001S17055 1868 1 SI MM NOT_NAMED 1868-01-04 03:00:00 NR -24.6358 60.2421 main 525 525 _____P________ -1 -24.6358 60.2421 99 15 123
1868001S17055 1868 1 SI MM NOT_NAMED 1868-01-04 06:00:00 NR -25.0000 60.9000 reunion main 600 600 _____O________ -1 -25.0000 60.9000 99 9.90000 13 120
1868001S17055 1868 1 SI MM NOT_NAMED 1868-01-04 09:00:00 NR -25.2777 61.4911 main 662 662 _____P________ -1 -25.2777 61.4911 99 12 115
1868001S17055 1868 1 SI MM NOT_NAMED 1868-01-04 12:00:00 NR -25.4973 62.0632 main 717 717 _____P________ -1 -25.4973 62.0632 99 11 111
1868001S17055 1868 1 SI MM NOT_NAMED 1868-01-04 15:00:00 NR -25.6660 62.6108 main 767 767 _____P________ -1 -25.6660 62.6108 99 10 107
1868001S17055 1868 1 SI MM NOT_NAMED 1868-01-04 18:00:00 NR -25.7911 63.1286 main 809 809 _____P________ -1 -25.7911 63.1286 99 9 103
1868001S17055 1868 1 SI MM NOT_NAMED 1868-01-04 21:00:00 NR -25.8797 63.6115 main 852 852 _____P________ -1 -25.8797 63.6115 99 8 100
1868001S17055 1868 1 SI MM NOT_NAMED 1868-01-05 00:00:00 NR -25.9393 64.0544 main 889 889 _____P________ -1 -25.9393 64.0544 99 8 97
1868001S17055 1868 1 SI MM NOT_NAMED 1868-01-05 03:00:00 NR -25.9769 64.4522 main 927 927 _____P________ -1 -25.9769 64.4522 99 7 95
1868001S17055 1868 1 SI MM NOT_NAMED 1868-01-05 06:00:00 NR -26.0000 64.8000 reunion main 950 950 _____O________ -1 -26.0000 64.8000 99 9.90000 6 94
1868001S17055 1868 1 SI MM NOT_NAMED 1868-01-05 09:00:00 NR -26.0148 65.0950 main 973 973 _____P________ -1 -26.0148 65.0950 99 5 93
1868001S17055 1868 1 SI MM NOT_NAMED 1868-01-05 12:00:00 NR -26.0235 65.3421 main 989 989 _____P________ -1 -26.0235 65.3421 99 4 92
1868001S17055 1868 1 SI MM NOT_NAMED 1868-01-05 15:00:00 NR -26.0271 65.5480 main 1005 1005 _____P________ -1 -26.0271 65.5480 99 3 91
1868001S17055 1868 1 SI MM NOT_NAMED 1868-01-05 18:00:00 NR -26.0266 65.7197 main 1021 1021 _____P________ -1 -26.0266 65.7197 99 3 89
1868001S17055 1868 1 SI MM NOT_NAMED 1868-01-05 21:00:00 NR -26.0228 65.8638 main 1038 1038 _____P________ -1 -26.0228 65.8638 99 2 88
1868001S17055 1868 1 SI MM NOT_NAMED 1868-01-06 00:00:00 NR -26.0165 65.9873 main 1046 1046 _____P________ -1 -26.0165 65.9873 99 2 86
1868001S17055 1868 1 SI MM NOT_NAMED 1868-01-06 03:00:00 NR -26.0087 66.0971 main 1054 1054 _____P________ -1 -26.0087 66.0971 99 2 85
1868001S17055 1868 1 SI MM NOT_NAMED 1868-01-06 06:00:00 NR -26.0000 66.2000 reunion main 1063 _____O________ -1 -26.0000 66.2000 99 9.90000 2 84

IBTrACS Databaseについて

本データベースは、米国NOAAが公開する1842年以降の世界の熱帯低気圧のベストトラックデータアーカイブInternational Best Track Archive for Climate Stewardship (IBTrACS)を、ウェブで閲覧しやすい形式に変換したものです。

最終更新日:2021-11-26